createdAt,value
2023-03-27T00:01:57.378Z,98616.65
2023-03-27T00:04:26.474Z,98611.75
2023-03-27T00:06:56.134Z,98605.79
2023-03-27T00:09:24.360Z,98607.17
2023-03-27T00:12:03.828Z,98612.27
2023-03-27T00:14:34.898Z,98611.75
2023-03-27T00:17:04.210Z,98611.21
2023-03-27T00:19:52.446Z,98613.73
2023-03-27T00:22:21.680Z,98615.16
2023-03-27T00:24:51.051Z,98610.58
2023-03-27T00:27:22.091Z,98609.95
2023-03-27T00:29:50.664Z,98610.46
2023-03-27T00:32:18.957Z,98612.48
2023-03-27T00:34:47.332Z,98609.17
2023-03-27T00:37:16.549Z,98614.13
2023-03-27T00:39:50.265Z,98614.61
2023-03-27T00:42:23.127Z,98617.23
2023-03-27T00:44:53.041Z,98613.63
2023-03-27T00:47:36.089Z,98616.55
2023-03-27T00:50:09.160Z,98617.14
2023-03-27T00:52:39.487Z,98621.15
2023-03-27T00:55:11.005Z,98613.75
2023-03-27T00:57:42.076Z,98613.11
2023-03-27T01:00:13.882Z,98617.13
2023-03-27T01:02:48.036Z,98620.02
2023-03-27T01:05:17.407Z,98625.08
2023-03-27T01:08:00.791Z,98625.35
2023-03-27T01:10:57.601Z,98627.10
2023-03-27T01:14:07.703Z,98622.63
2023-03-27T01:16:41.091Z,98619.98
2023-03-27T01:19:47.491Z,98621.20
2023-03-27T01:22:42.827Z,98620.52
2023-03-27T01:25:30.772Z,98614.31
2023-03-27T01:28:03.010Z,98605.77
2023-03-27T01:30:46.777Z,98604.65
2023-03-27T01:33:51.551Z,98608.41
2023-03-27T01:36:32.129Z,98613.14
2023-03-27T01:39:13.531Z,98618.20
2023-03-27T01:41:42.254Z,98621.69
2023-03-27T01:44:19.799Z,98614.09
2023-03-27T01:46:56.740Z,98611.62
2023-03-27T01:49:31.269Z,98608.60
2023-03-27T01:52:02.253Z,98602.26
2023-03-27T01:54:35.440Z,98605.67
2023-03-27T01:57:20.421Z,98605.77
2023-03-27T01:59:53.985Z,98601.91
2023-03-27T02:02:26.969Z,98602.02
2023-03-27T02:05:15.619Z,98604.05
2023-03-27T02:07:51.644Z,98611.16
2023-03-27T02:10:23.583Z,98610.02
2023-03-27T02:12:58.717Z,98607.48
2023-03-27T02:15:31.971Z,98611.46
2023-03-27T02:18:05.416Z,98612.55
2023-03-27T02:20:34.494Z,98617.05
2023-03-27T02:23:03.292Z,98616.94
2023-03-27T02:25:39.089Z,98618.56
2023-03-27T02:28:21.157Z,98617.05
2023-03-27T02:31:06.811Z,98625.77
2023-03-27T02:33:51.462Z,98629.05
2023-03-27T02:36:29.978Z,98636.70
2023-03-27T02:39:02.326Z,98638.44
2023-03-27T02:41:37.763Z,98647.73
2023-03-27T02:44:51.787Z,98653.93
2023-03-27T02:47:24.088Z,98659.54
2023-03-27T02:49:54.112Z,98669.23
2023-03-27T02:52:29.692Z,98674.98
2023-03-27T02:55:06.869Z,98678.10
2023-03-27T02:57:40.193Z,98679.63
2023-03-27T03:00:28.083Z,98680.05
2023-03-27T03:03:28.339Z,98678.52
2023-03-27T03:06:11.486Z,98679.48
2023-03-27T03:08:41.269Z,98682.54
2023-03-27T03:11:12.175Z,98686.39
2023-03-27T03:13:43.450Z,98684.18
2023-03-27T03:16:12.086Z,98683.52
2023-03-27T03:18:41.495Z,98678.40
2023-03-27T03:21:12.245Z,98674.79
2023-03-27T03:23:41.758Z,98677.33
2023-03-27T03:26:32.344Z,98675.27
2023-03-27T03:29:01.830Z,98677.08
2023-03-27T03:31:43.607Z,98678.73
2023-03-27T03:34:16.911Z,98676.15
2023-03-27T03:36:49.843Z,98677.73
2023-03-27T03:39:25.144Z,98675.52
2023-03-27T03:41:55.691Z,98674.34
2023-03-27T03:44:24.219Z,98678.21
2023-03-27T03:46:52.646Z,98680.02
2023-03-27T03:49:23.166Z,98676.48
2023-03-27T03:52:03.940Z,98685.51
2023-03-27T03:54:34.092Z,98684.25
2023-03-27T03:57:03.463Z,98687.42
2023-03-27T03:59:34.152Z,98687.95
2023-03-27T04:02:31.442Z,98692.77
2023-03-27T04:05:11.853Z,98695.85
2023-03-27T04:07:41.281Z,98691.67
2023-03-27T04:10:32.759Z,98695.23
2023-03-27T04:13:04.218Z,98690.18
2023-03-27T04:15:37.137Z,98690.63
2023-03-27T04:18:08.413Z,98689.83
2023-03-27T04:20:37.648Z,98692.89
2023-03-27T04:23:08.492Z,98684.39
2023-03-27T04:25:40.425Z,98681.48
2023-03-27T04:28:10.478Z,98679.44
2023-03-27T04:30:44.891Z,98681.52
2023-03-27T04:33:23.311Z,98676.34
2023-03-27T04:36:06.397Z,98669.55
2023-03-27T04:39:03.834Z,98668.63
2023-03-27T04:41:38.786Z,98670.62
2023-03-27T04:44:07.295Z,98667.35
2023-03-27T04:46:36.482Z,98671.90
2023-03-27T04:49:09.384Z,98668.92
2023-03-27T04:51:53.250Z,98670.38
2023-03-27T04:54:25.031Z,98667.46
2023-03-27T04:58:09.509Z,98672.30
2023-03-27T05:00:40.518Z,98673.36
2023-03-27T05:03:40.068Z,98676.73
2023-03-27T05:06:12.211Z,98676.10
2023-03-27T05:08:41.090Z,98674.86
2023-03-27T05:11:14.379Z,98674.02
2023-03-27T05:13:45.653Z,98667.18
2023-03-27T05:16:14.091Z,98670.29
2023-03-27T05:18:44.849Z,98667.77
2023-03-27T05:21:15.424Z,98665.73
2023-03-27T05:23:42.834Z,98670.06
2023-03-27T05:26:10.136Z,98671.81
2023-03-27T05:28:53.814Z,98677.78
2023-03-27T05:31:21.932Z,98671.85
2023-03-27T05:33:58.982Z,98669.14
2023-03-27T05:36:29.393Z,98665.46
2023-03-27T05:38:57.486Z,98665.67
2023-03-27T05:41:40.745Z,98664.30
2023-03-27T05:44:08.773Z,98663.86
2023-03-27T05:46:40.699Z,98663.49
2023-03-27T05:49:13.461Z,98660.59
2023-03-27T05:51:47.143Z,98659.69
2023-03-27T05:54:20.338Z,98664.13
2023-03-27T05:56:52.863Z,98664.18
2023-03-27T05:59:21.089Z,98664.11
2023-03-27T06:01:48.972Z,98663.12
2023-03-27T06:04:21.661Z,98657.05
2023-03-27T06:07:04.050Z,98655.83
2023-03-27T06:09:32.355Z,98655.71
2023-03-27T06:12:23.649Z,98660.56
2023-03-27T06:15:11.177Z,98663.97
2023-03-27T06:17:48.343Z,98665.77
2023-03-27T06:20:17.011Z,98661.13
2023-03-27T06:22:56.804Z,98661.83
2023-03-27T06:25:34.650Z,98660.23
2023-03-27T06:28:07.267Z,98668.38
2023-03-27T06:30:41.166Z,98663.33
2023-03-27T06:33:42.766Z,98666.87
2023-03-27T06:36:21.518Z,98662.84
2023-03-27T06:38:52.170Z,98666.95
2023-03-27T06:41:20.392Z,98670.33
2023-03-27T06:44:10.316Z,98668.66
2023-03-27T06:47:02.283Z,98668.48
2023-03-27T06:49:52.780Z,98676.59
2023-03-27T06:52:24.107Z,98678.16
2023-03-27T06:54:56.895Z,98682.70
2023-03-27T06:57:28.182Z,98684.75
2023-03-27T07:00:01.648Z,98684.75
2023-03-27T07:02:50.349Z,98682.06
2023-03-27T07:05:39.188Z,98676.21
2023-03-27T07:08:22.365Z,98677.14
2023-03-27T07:13:25.833Z,98678.82
2023-03-27T07:15:55.216Z,98676.55
2023-03-27T07:18:25.186Z,98677.48
2023-03-27T07:20:56.003Z,98676.96
2023-03-27T07:23:25.703Z,98678.41
2023-03-27T07:25:58.905Z,98679.14
2023-03-27T07:28:44.686Z,98678.48
2023-03-27T07:31:31.496Z,98684.00
2023-03-27T07:34:03.608Z,98681.91
2023-03-27T07:37:03.087Z,98680.54
2023-03-27T07:39:34.257Z,98681.05
2023-03-27T07:42:03.429Z,98682.73
2023-03-27T07:44:43.170Z,98688.10
2023-03-27T07:47:12.675Z,98687.17
2023-03-27T07:49:42.297Z,98688.09
2023-03-27T07:52:16.606Z,98688.02
2023-03-27T07:54:57.204Z,98686.23
2023-03-27T07:57:33.061Z,98684.42
2023-03-27T08:00:11.788Z,98684.55
2023-03-27T08:02:51.493Z,98675.05
2023-03-27T08:05:19.844Z,98676.23
2023-03-27T08:07:56.001Z,98669.71
2023-03-27T08:10:43.155Z,98671.25
2023-03-27T08:13:13.188Z,98670.83
2023-03-27T08:15:41.611Z,98669.79
2023-03-27T08:18:20.582Z,98671.94
2023-03-27T08:20:50.118Z,98666.80
2023-03-27T08:23:18.281Z,98667.02
2023-03-27T08:26:26.894Z,98674.70
2023-03-27T08:29:00.704Z,98672.09
2023-03-27T08:31:31.597Z,98673.72
2023-03-27T08:34:02.120Z,98670.49
2023-03-27T08:36:52.869Z,98669.16
2023-03-27T08:39:23.039Z,98667.92
2023-03-27T08:42:01.613Z,98667.84
2023-03-27T08:44:33.583Z,98663.89
2023-03-27T08:47:17.423Z,98665.17
2023-03-27T08:49:58.304Z,98662.73
2023-03-27T08:52:32.200Z,98661.78
2023-03-27T08:55:19.041Z,98660.03
2023-03-27T08:58:12.318Z,98653.92
2023-03-27T09:00:42.726Z,98651.92
2023-03-27T09:03:28.164Z,98650.04
2023-03-27T09:05:59.306Z,98645.47
2023-03-27T09:08:41.082Z,98644.69
2023-03-27T09:11:16.132Z,98640.73
2023-03-27T09:13:52.138Z,98638.80
2023-03-27T09:16:23.531Z,98635.48
2023-03-27T09:19:04.229Z,98634.57
2023-03-27T09:22:06.031Z,98632.05
2023-03-27T09:24:57.009Z,98635.60
2023-03-27T09:27:33.808Z,98636.68
2023-03-27T09:30:29.339Z,98633.23
2023-03-27T09:33:04.017Z,98633.32
2023-03-27T09:35:33.391Z,98628.36
2023-03-27T09:38:04.193Z,98624.42
2023-03-27T09:40:54.969Z,98624.89
2023-03-27T09:43:41.816Z,98623.48
2023-03-27T09:46:11.645Z,98620.30
2023-03-27T09:48:58.430Z,98620.77
2023-03-27T09:51:42.687Z,98616.96
2023-03-27T09:54:18.493Z,98615.91
2023-03-27T09:56:48.831Z,98619.30
2023-03-27T09:59:33.305Z,98614.49
2023-03-27T10:02:22.490Z,98608.14
2023-03-27T10:05:17.512Z,98604.95
2023-03-27T10:07:48.442Z,98604.42
2023-03-27T10:10:20.052Z,98603.58
2023-03-27T10:21:12.351Z,98606.42
2023-03-27T10:23:46.448Z,98606.75
2023-03-27T10:26:27.310Z,98604.80
2023-03-27T10:28:59.562Z,98604.10
2023-03-27T10:31:38.486Z,98601.15
2023-03-27T10:34:29.092Z,98598.14
2023-03-27T10:37:28.799Z,98596.23
2023-03-27T10:40:17.445Z,98599.40
2023-03-27T10:42:46.814Z,98594.50
2023-03-27T10:45:16.926Z,98600.17
2023-03-27T10:47:47.578Z,98593.34
2023-03-27T10:50:53.382Z,98588.52
2023-03-27T10:53:43.068Z,98583.70
2023-03-27T10:56:39.594Z,98589.86
2023-03-27T10:59:16.869Z,98586.45
2023-03-27T11:01:56.255Z,98583.34
2023-03-27T11:04:45.273Z,98583.74
2023-03-27T11:07:38.047Z,98576.10
2023-03-27T11:10:25.388Z,98573.09
2023-03-27T11:13:04.792Z,98572.16
2023-03-27T11:15:39.783Z,98572.27
2023-03-27T11:18:28.873Z,98570.73
2023-03-27T11:21:23.299Z,98562.05
2023-03-27T11:24:01.810Z,98561.39
2023-03-27T11:26:38.360Z,98561.33
2023-03-27T11:29:21.312Z,98562.98
2023-03-27T11:31:53.116Z,98557.05
2023-03-27T11:34:54.519Z,98549.77
2023-03-27T11:37:43.178Z,98562.41
2023-03-27T11:40:20.492Z,98563.63
2023-03-27T11:42:51.745Z,98557.08
2023-03-27T11:45:27.772Z,98565.70
2023-03-27T11:48:25.835Z,98563.27
2023-03-27T11:51:13.053Z,98565.62
2023-03-27T11:54:12.165Z,98563.70
2023-03-27T11:57:02.561Z,98563.66
2023-03-27T12:00:16.500Z,98556.11
2023-03-27T12:03:07.044Z,98555.88
2023-03-27T12:05:55.451Z,98551.10
2023-03-27T12:09:10.222Z,98547.77
2023-03-27T12:12:00.551Z,98546.88
2023-03-27T12:14:40.976Z,98540.38
2023-03-27T12:17:24.229Z,98541.86
2023-03-27T12:20:09.593Z,98543.57
2023-03-27T12:22:44.026Z,98536.19
2023-03-27T12:25:38.806Z,98539.08
2023-03-27T12:29:23.592Z,98539.57
2023-03-27T12:32:32.152Z,98539.17
2023-03-27T12:35:06.589Z,98538.73
2023-03-27T12:37:45.041Z,98534.76
2023-03-27T12:40:40.680Z,98534.95
2023-03-27T12:43:21.128Z,98531.26
2023-03-27T12:46:07.496Z,98528.23
2023-03-27T12:48:56.296Z,98524.41
2023-03-27T12:51:44.030Z,98523.42
2023-03-27T12:54:22.019Z,98519.83
2023-03-27T12:57:11.090Z,98517.66
2023-03-27T12:59:50.873Z,98517.70
2023-03-27T13:02:34.986Z,98514.88
2023-03-27T13:05:24.193Z,98514.80
2023-03-27T13:08:15.886Z,98513.08
2023-03-27T13:11:50.268Z,98508.61
2023-03-27T13:14:30.828Z,98499.61
2023-03-27T13:17:36.869Z,98501.07
2023-03-27T13:21:00.146Z,98497.90
2023-03-27T13:23:50.110Z,98495.38
2023-03-27T13:26:45.315Z,98489.09
2023-03-27T13:29:24.567Z,98494.48
2023-03-27T13:32:26.405Z,98489.41
2023-03-27T13:35:22.081Z,98488.39
2023-03-27T13:37:51.951Z,98482.66
2023-03-27T13:40:35.455Z,98480.17
2023-03-27T13:43:28.480Z,98481.73
2023-03-27T13:46:19.344Z,98477.35
2023-03-27T13:49:32.682Z,98478.08
2023-03-27T13:52:44.521Z,98473.04
2023-03-27T13:55:36.955Z,98470.41
2023-03-27T13:58:59.401Z,98468.14
2023-03-27T14:01:42.594Z,98469.65
2023-03-27T14:04:23.508Z,98461.95
2023-03-27T14:07:39.289Z,98458.71
2023-03-27T14:10:23.311Z,98457.59
2023-03-27T14:13:41.664Z,98450.89
2023-03-27T14:16:30.123Z,98456.01
2023-03-27T14:19:23.375Z,98453.33
2023-03-27T14:21:56.299Z,98449.33
2023-03-27T14:24:36.109Z,98447.23
2023-03-27T14:27:14.356Z,98449.32
2023-03-27T14:29:45.239Z,98447.66
2023-03-27T14:32:17.615Z,98446.30
2023-03-27T14:35:04.660Z,98445.42
2023-03-27T14:37:45.150Z,98442.67
2023-03-27T14:40:43.017Z,98445.59
2023-03-27T14:43:13.826Z,98441.92
2023-03-27T14:45:43.455Z,98442.40
2023-03-27T14:48:34.747Z,98440.55
2023-03-27T14:51:07.707Z,98439.23
2023-03-27T14:53:44.342Z,98438.88
2023-03-27T14:56:28.120Z,98440.41
2023-03-27T14:59:02.274Z,98438.30
2023-03-27T15:01:41.531Z,98439.02
2023-03-27T15:04:11.739Z,98431.69
2023-03-27T15:06:41.687Z,98431.08
2023-03-27T15:09:19.478Z,98430.71
2023-03-27T15:12:23.467Z,98434.13
2023-03-27T15:14:59.420Z,98431.02
2023-03-27T15:17:29.088Z,98428.55
2023-03-27T15:20:10.449Z,98429.80
2023-03-27T15:22:42.143Z,98423.52
2023-03-27T15:25:19.684Z,98423.46
2023-03-27T15:27:53.025Z,98424.95
2023-03-27T15:30:27.254Z,98421.86
2023-03-27T15:32:56.859Z,98423.72
2023-03-27T15:35:34.557Z,98429.05
2023-03-27T15:38:04.547Z,98435.63
2023-03-27T15:40:43.230Z,98431.96
2023-03-27T15:43:14.583Z,98427.73
2023-03-27T15:45:52.378Z,98432.23
2023-03-27T15:48:23.248Z,98430.38
2023-03-27T15:51:04.809Z,98426.88
2023-03-27T15:53:41.533Z,98426.06
2023-03-27T15:56:35.004Z,98421.48
2023-03-27T15:59:05.726Z,98426.79
2023-03-27T16:01:34.847Z,98426.02
2023-03-27T16:04:08.983Z,98429.12
2023-03-27T16:06:40.942Z,98430.16
2023-03-27T16:09:38.702Z,98429.58
2023-03-27T16:12:10.490Z,98427.09
2023-03-27T16:19:18.432Z,98430.61
2023-03-27T16:29:51.256Z,98420.07
2023-03-27T16:32:19.644Z,98418.23
2023-03-27T16:34:52.752Z,98417.20
2023-03-27T16:37:21.736Z,98417.95
2023-03-27T16:39:49.612Z,98417.63
2023-03-27T16:42:17.807Z,98423.61
2023-03-27T16:44:45.139Z,98422.52
2023-03-27T16:47:13.432Z,98426.73
2023-03-27T16:49:40.670Z,98426.98
2023-03-27T16:52:09.366Z,98424.23
2023-03-27T16:54:37.119Z,98423.09
2023-03-27T16:57:04.414Z,98421.52
2023-03-27T16:59:32.086Z,98425.55
2023-03-27T17:02:00.145Z,98423.56
2023-03-27T17:04:28.012Z,98424.95
2023-03-27T17:06:55.603Z,98428.74
2023-03-27T17:09:22.921Z,98423.05
2023-03-27T17:11:50.008Z,98426.55
2023-03-27T17:16:01.345Z,98432.56
2023-03-27T17:18:29.674Z,98429.98
2023-03-27T17:20:58.236Z,98429.23
2023-03-27T17:23:29.354Z,98428.16
2023-03-27T17:26:03.057Z,98427.48
2023-03-27T17:28:31.652Z,98428.27
2023-03-27T17:31:04.551Z,98430.00
2023-03-27T17:33:34.208Z,98431.29
2023-03-27T17:36:08.799Z,98431.95
2023-03-27T17:38:37.302Z,98433.74
2023-03-27T17:41:07.473Z,98440.66
2023-03-27T17:43:40.459Z,98438.66
2023-03-27T17:46:08.761Z,98438.20
2023-03-27T17:48:37.150Z,98439.00
2023-03-27T17:51:10.923Z,98440.16
2023-03-27T17:53:39.187Z,98439.35
2023-03-27T17:56:09.129Z,98435.61
2023-03-27T17:58:38.125Z,98430.48
2023-03-27T18:01:21.427Z,98429.58
2023-03-27T18:03:50.463Z,98429.18
2023-03-27T18:06:19.759Z,98434.77
2023-03-27T18:08:48.337Z,98433.92
2023-03-27T18:11:22.912Z,98432.13
2023-03-27T18:13:53.637Z,98428.52
2023-03-27T18:16:23.454Z,98430.60
2023-03-27T18:18:55.386Z,98425.90
2023-03-27T18:21:24.029Z,98428.84
2023-03-27T18:23:59.762Z,98433.27
2023-03-27T18:26:28.262Z,98432.70
2023-03-27T18:29:04.052Z,98429.27
2023-03-27T18:31:37.400Z,98429.70
2023-03-27T18:34:08.210Z,98429.71
2023-03-27T18:36:40.550Z,98435.46
2023-03-27T18:39:08.918Z,98432.95
2023-03-27T18:41:39.874Z,98429.80
2023-03-27T18:44:08.349Z,98434.07
2023-03-27T18:46:39.085Z,98432.04
2023-03-27T18:49:21.440Z,98430.27
2023-03-27T18:51:53.560Z,98429.79
2023-03-27T18:54:22.256Z,98433.31
2023-03-27T18:56:52.273Z,98435.80
2023-03-27T18:59:20.901Z,98423.61
2023-03-27T19:01:49.493Z,98420.30
2023-03-27T19:04:20.788Z,98414.52
2023-03-27T19:06:49.213Z,98411.62
2023-03-27T19:09:18.698Z,98409.20
2023-03-27T19:11:47.260Z,98404.91
2023-03-27T19:14:41.856Z,98399.81
2023-03-27T19:17:41.504Z,98399.91
2023-03-27T19:20:28.941Z,98392.19
2023-03-27T19:23:18.181Z,98395.26
2023-03-27T19:25:51.468Z,98392.83
2023-03-27T19:28:20.404Z,98392.88
2023-03-27T19:30:51.993Z,98385.02
2023-03-27T19:33:21.940Z,98387.61
2023-03-27T19:35:52.779Z,98379.98
2023-03-27T19:38:22.070Z,98379.85
2023-03-27T19:40:52.884Z,98378.39
2023-03-27T19:43:26.625Z,98374.62
2023-03-27T19:46:08.394Z,98380.18
2023-03-27T19:48:45.833Z,98375.14
2023-03-27T19:51:23.032Z,98369.76
2023-03-27T19:53:55.670Z,98368.23
2023-03-27T19:56:26.725Z,98367.21
2023-03-27T19:58:56.333Z,98365.94
2023-03-27T20:01:28.673Z,98368.34
2023-03-27T20:03:58.434Z,98371.48
2023-03-27T20:06:29.069Z,98369.88
2023-03-27T20:09:01.936Z,98368.42
2023-03-27T20:11:30.414Z,98368.04
2023-03-27T20:13:58.784Z,98360.72
2023-03-27T20:16:28.097Z,98362.93
2023-03-27T20:19:06.344Z,98355.94
2023-03-27T20:21:39.900Z,98354.77
2023-03-27T20:24:12.705Z,98353.64
2023-03-27T20:26:43.215Z,98354.10
2023-03-27T20:29:19.172Z,98344.84
2023-03-27T20:31:48.506Z,98349.17
2023-03-27T20:34:20.493Z,98345.27
2023-03-27T20:36:53.415Z,98343.73
2023-03-27T20:39:34.409Z,98348.65
2023-03-27T20:42:02.938Z,98344.41
2023-03-27T20:44:38.076Z,98345.58
2023-03-27T20:47:11.411Z,98346.70
2023-03-27T20:49:43.069Z,98344.14
2023-03-27T20:52:14.311Z,98339.20
2023-03-27T20:54:42.724Z,98339.06
2023-03-27T20:57:12.498Z,98335.23
2023-03-27T20:59:41.308Z,98334.78
2023-03-27T21:02:15.132Z,98336.00
2023-03-27T21:04:43.700Z,98327.48
2023-03-27T21:07:12.301Z,98310.25
2023-03-27T21:09:44.711Z,98311.88
2023-03-27T21:12:13.049Z,98312.45
2023-03-27T21:14:41.326Z,98317.63
2023-03-27T21:17:14.132Z,98315.08
2023-03-27T21:19:42.792Z,98313.00
2023-03-27T21:26:45.572Z,98307.02
2023-03-27T21:29:17.745Z,98309.29
2023-03-27T21:31:47.100Z,98308.01
2023-03-27T21:34:15.892Z,98305.25
2023-03-27T21:36:44.401Z,98302.94
2023-03-27T21:39:12.896Z,98303.92
2023-03-27T21:41:41.316Z,98300.46
2023-03-27T21:44:11.144Z,98302.13
2023-03-27T21:46:39.968Z,98299.14
2023-03-27T21:49:08.638Z,98297.37
2023-03-27T21:51:37.447Z,98292.63
2023-03-27T21:54:12.033Z,98289.15
2023-03-27T21:56:41.471Z,98288.23
2023-03-27T21:59:10.492Z,98287.98
2023-03-27T22:01:40.999Z,98292.45
2023-03-27T22:04:09.820Z,98284.60
2023-03-27T22:06:38.812Z,98289.99
2023-03-27T22:09:08.869Z,98288.69
2023-03-27T22:11:37.298Z,98290.73
2023-03-27T22:14:10.674Z,98290.60
2023-03-27T22:16:41.280Z,98291.98
2023-03-27T22:19:11.076Z,98287.48
2023-03-27T22:21:41.894Z,98291.27
2023-03-27T22:24:10.215Z,98288.79
2023-03-27T22:26:39.492Z,98286.47
2023-03-27T22:29:14.155Z,98286.42
2023-03-27T22:31:44.014Z,98288.38
2023-03-27T22:34:12.554Z,98291.77
2023-03-27T22:36:41.856Z,98295.04
2023-03-27T22:39:10.334Z,98295.80
2023-03-27T22:41:39.262Z,98293.79
2023-03-27T22:44:08.524Z,98291.77
2023-03-27T22:46:38.063Z,98295.15
2023-03-27T22:49:06.870Z,98290.59
2023-03-27T22:51:35.934Z,98286.12
2023-03-27T22:54:11.298Z,98281.61
2023-03-27T22:56:39.850Z,98281.30
2023-03-27T22:59:09.049Z,98281.80
2023-03-27T23:01:38.154Z,98276.46
2023-03-27T23:04:06.940Z,98272.75
2023-03-27T23:06:35.746Z,98267.11
2023-03-27T23:09:04.614Z,98261.58
2023-03-27T23:11:33.193Z,98255.05
2023-03-27T23:14:04.844Z,98255.77
2023-03-27T23:16:33.858Z,98252.09
2023-03-27T23:19:02.636Z,98252.03
2023-03-27T23:21:31.164Z,98248.34
2023-03-27T23:23:59.593Z,98246.70
2023-03-27T23:26:28.049Z,98244.92
2023-03-27T23:28:56.315Z,98244.22
2023-03-27T23:31:24.888Z,98248.27
2023-03-27T23:33:53.530Z,98254.80
2023-03-27T23:36:23.561Z,98249.08
2023-03-27T23:38:53.281Z,98249.66
2023-03-27T23:41:21.772Z,98251.21
2023-03-27T23:43:50.213Z,98251.11
2023-03-27T23:46:20.683Z,98250.52
2023-03-27T23:48:49.206Z,98243.96
2023-03-27T23:51:17.720Z,98245.27
2023-03-27T23:53:49.479Z,98235.85
2023-03-27T23:56:18.049Z,98240.54
2023-03-27T23:58:46.657Z,98242.60
